Jack C. Davis Observatory, Carson City, Nevada Weather observations

Data are for observation ending at time listed.
 Day   Time    Ave.   Ave.  Ave.  Vector   Max.   Stn.    Total    Solar   Ave.  
  of    of     Air    Rel.  Wind   Wind    Wind   Baro.  Precip.   Rad.    Soil  
Year   Day     Temp.  Hum.  Speed  Dir.    Gust   Pres.                    Temp. 
2016   (PST)    F      %     mph   deg.    mph     mb.     in.     W/m2     F   
------------------------------------------------------------------------------
 125    5:50   48.4    69    1.1   353      2.8   845.5    0.00      39    999.0
 125    6:00   48.7    71    1.1   317      1.8   845.4    0.00      46    999.0
 125    6:10   48.6    72    2.3   271      2.9   845.4    0.00      46    999.0
 125    6:20   49.2    70    0.7   264      2.0   845.4    0.00      49    999.0
 125    6:30   49.6    72    0.4   264      0.9   845.4    0.00      83    999.0
 125    6:40   50.6    69    0.3   118      1.6   845.5    0.00     147    999.0
 125    6:50   51.2    67    1.5   108      2.9   845.5    0.00     185    999.0
 125    7:00   50.8    66    2.6   117      3.9   845.7    0.00     157    999.0
 125    7:10   51.6    62    0.7   104      2.9   845.6    0.00     233    999.0
 125    7:20   53.0    60    0.6   185      2.1   845.6    0.00     173    999.0
 125    7:30   52.7    61    1.7    70      3.7   845.6    0.00     212    999.0
 125    7:40   52.5    62    1.0    77      2.0   845.5    0.00     141    999.0
 125    7:50   52.2    63    2.3    88      3.6   845.5    0.00     164    999.0
 125    8:00   52.9    60    1.0   106      3.0   845.4    0.00     242    999.0
 125    8:10   55.3    56    0.8   120      2.3   845.4    0.00     335    999.0
 125    8:20   55.5    56    1.6   116      2.9   845.3    0.00     384    999.0
 125    8:30   57.5    51    0.9    96      3.5   845.3    0.00     454    999.0
 125    8:40   58.3    51    1.9    42      4.2   845.2    0.00     478    999.0
 125    8:50   58.0    51    2.1   129      3.7   845.1    0.00     405    999.0
 125    9:00   59.8    48    2.1   142      4.2   845.0    0.00     629    999.0
 125    9:10   60.7    45    1.4   111      4.1   845.0    0.00     634    999.0
 125    9:20   62.5    44    1.7   137      4.0   845.0    0.00     538    999.0
 125    9:30   62.3    44    2.0   135      4.8   844.9    0.00     474    999.0
 125    9:40   61.4    46    2.7   139      4.9   844.9    0.00     362    999.0
 125    9:50   61.9    44    1.9   142      3.4   844.9    0.00     490    999.0
 125   10:00   64.6    39    2.2   160      4.2   844.8    0.00     526    999.0
 125   10:10   63.3    40    1.6    86      3.9   844.8    0.00     502    999.0
 125   10:20   64.2    40    2.1   113      5.2   844.8    0.00     565    999.0
 125   10:30   63.6    38    2.4    63      5.1   844.7    0.00     409    999.0
 125   10:40   63.3    38    2.4   112      5.2   844.6    0.00     577    999.0
 125   10:50   65.1    36    3.1    84      6.1   844.5    0.00     923    999.0
 125   11:00   66.7    32    1.8    71      5.6   844.4    0.00     894    999.0
 125   11:10   67.0    34    3.9   102      7.0   844.2    0.00     812    999.0
 125   11:20   66.8    32    3.1   105      6.0   844.2    0.00     746    999.0
 125   11:30   67.3    31    2.4   108      6.1   844.1    0.00     448    999.0
 125   11:40   66.0    33    3.6   129      5.6   844.0    0.00     425    999.0
 125   11:50   66.4    31    3.1   123      5.8   844.0    0.00     447    999.0
 125   12:00   66.6    31    2.8   131      7.0   843.9    0.00     453    999.0
 125   12:10   67.6    29    2.1    75      5.0   843.8    0.00     617    999.0
 125   12:20   69.4    29    3.9   176      7.2   843.6    0.00     603    999.0
 125   12:30   70.3    28    2.7   102      7.5   843.4    0.00     939    999.0
 125   12:40   68.1    30    5.2   112     11.2   843.4    0.00     536    999.0
 125   12:50   68.5    27    5.4   137     12.6   843.3    0.00     550    999.0
 125   13:00   68.1    27    5.9   131     12.5   843.3    0.00     372    999.0
 125   13:10   67.0    29    7.6   105     13.7   843.1    0.00     383    999.0
 125   13:20   67.0    30    7.3    88     13.2   843.0    0.00     583    999.0
 125   13:30   67.8    27    6.4   117     13.5   842.9    0.00     567    999.0
 125   13:40   68.3    27    6.4   127     12.2   842.9    0.00     422    999.0
 125   13:50   67.6    29    6.0   116     10.9   842.8    0.00     411    999.0
 125   14:00   66.3    31    8.2    58     14.5   842.7    0.00     460    999.0
 125   14:10   66.4    31    7.2    68     11.8   842.5    0.00     416    999.0
 125   14:20   66.6    30    6.4    76     11.5   842.5    0.00     424    999.0
 125   14:30   66.9    29    7.8    65     12.6   842.3    0.00     486    999.0
 125   14:40   67.0    28    6.1    78     10.3   842.1    0.00     409    999.0
 125   14:50   67.2    27    4.9    84      9.6   842.0    0.00     389    999.0
 125   15:00   67.8    27    3.1    71      7.5   841.8    0.00     440    999.0
 125   15:10   68.9    26    3.7   104      9.1   841.7    0.00     428    999.0
 125   15:20   68.5    26    3.4   174      8.2   841.8    0.00     223    999.0
 125   15:30   65.8    28   13.1   192     28.1   842.2    0.00      92    999.0
 125   15:40   64.2    29    5.4   224     11.2   842.2    0.00     191    999.0
 125   15:50   64.4    30    5.8   257      9.1   842.0    0.00     188    999.0
 125   16:00   64.4    29    4.2   274      7.3   842.0    0.00     193    999.0
 125   16:10   65.0    29    4.3   286      7.5   841.9    0.00     209    999.0
 125   16:20   65.2    28    4.3   270      8.3   841.9    0.00     189    999.0
 125   16:30   65.8    26    1.1   259      4.7   841.9    0.00     176    999.0
 125   16:40   66.6    26    1.8   188      3.5   841.9    0.00     134    999.0
 125   16:50   65.5    29    3.8   158      8.4   842.2    0.00      66    999.0
 125   17:00   64.4    28    9.6   162     16.8   842.5    0.00      52    999.0
 125   17:10   63.2    28   10.0   208     21.0   842.3    0.00      82    999.0
 125   17:20   62.3    34    7.2   118     14.9   842.4    0.00     123    999.0
 125   17:30   62.1    34    4.4   144      7.5   842.4    0.00      94    999.0
 125   17:40   62.1    35    3.1   153      6.3   842.3    0.00      66    999.0
 125   17:50   61.9    36    2.1   197      3.8   842.1    0.00      59    999.0
 125   18:00   61.5    38    1.7   292      3.3   842.0    0.00      60    999.0
 125   18:10   60.5    41    2.4   282      3.2   841.9    0.00      46    999.0
 125   18:20   59.8    45    2.3   282      4.0   841.9    0.00      34    999.0
 125   18:30   57.8    49    5.3   264      6.9   842.0    0.00      21    999.0
 125   18:40   58.2    46    5.2   273      8.1   841.9    0.00      11    999.0
 125   18:50   57.4    47    4.9   271      6.1   841.7    0.00       5    999.0
 125   19:00   56.9    47    4.9   272      6.1   841.7    0.00       1    999.0
 125   19:10   57.2    46    5.2   278      6.9   841.8    0.00       1    999.0
 125   19:20   56.9    44    6.0   272      7.8   841.8    0.00       1    999.0
 125   19:30   57.7    40    6.2   267      9.0   841.9    0.00       1    999.0
 125   19:40   58.0    42    6.4   267      9.1   841.9    0.00       1    999.0
 125   19:50   57.7    45    5.8   267      8.6   842.0    0.00       1    999.0
 125   20:00   57.8    47    6.0   264      9.4   842.0    0.00       1    999.0
 125   20:10   57.5    47    6.1   270      8.6   842.0    0.00       1    999.0
 125   20:20   57.7    47    5.4   257      8.6   842.1    0.00       1    999.0
 125   20:30   58.1    46    6.4   256      9.5   842.1    0.00       1    999.0
 125   20:40   58.4    45    4.6   258      8.3   842.3    0.00       1    999.0
 125   20:50   58.1    45    1.7   231      5.6   842.3    0.00       1    999.0
 125   21:00   58.3    44    1.3   190      3.3   842.3    0.00       1    999.0
 125   21:10   57.4    46    3.5   306      7.2   842.5    0.00       1    999.0
 125   21:20   56.0    51    6.3   315     10.8   842.5    0.00       1    999.0
 125   21:30   55.8    50    7.0   309     11.3   842.5    0.00       1    999.0
 125   21:40   55.4    51    5.6   322     10.0   842.5    0.00       1    999.0
 125   21:50   55.2    50    5.2   318      7.7   842.5    0.00       1    999.0
 125   22:00   56.0    47    6.5   318     12.0   842.5    0.00       1    999.0
 125   22:10   56.4    46    5.9   314      9.6   842.3    0.00       1    999.0
 125   22:20   56.5    46    8.1   311     11.5   842.3    0.00       1    999.0
 125   22:30   56.0    49    6.7   319     10.7   842.3    0.00       1    999.0
 125   22:40   56.4    48   10.1   309     15.5   842.2    0.00       1    999.0
 125   22:50   56.8    48   10.2   306     16.1   842.1    0.00       1    999.0
 125   23:00   56.7    48   10.4   305     15.6   842.1    0.00       1    999.0
 125   23:10   56.4    49    8.4   313     15.0   842.1    0.00       1    999.0
 125   23:20   56.1    49    8.4   314     14.5   842.0    0.00       1    999.0
 125   23:30   55.5    50    7.0   322     12.7   842.0    0.00       1    999.0
 125   23:40   54.4    53    6.3   326     10.2   842.0    0.00       1    999.0
 125   23:50   53.7    55    6.1   328     11.3   842.0    0.00       1    999.0
 126    0:00   53.6    56    6.7   324     11.5   842.0    0.00       1    999.0
 126    0:10   54.4    54    8.1   325     12.9   841.9    0.00       1    999.0
 126    0:20   54.5    53    9.5   316     14.5   841.8    0.00       1    999.0
 126    0:30   54.7    53   10.0   314     14.7   841.8    0.00       1    999.0
 126    0:40   54.7    52   11.4   310     15.1   841.7    0.00       1    999.0
 126    0:50   54.6    52   11.2   311     16.1   841.5    0.00       1    999.0
 126    1:00   54.4    52    9.4   317     16.4   841.5    0.00       1    999.0
 126    1:10   54.2    53    8.5   315     13.1   841.3    0.00       1    999.0
 126    1:20   53.8    54    6.9   324     13.4   841.3    0.00       1    999.0
 126    1:30   53.5    55    6.6   327     12.3   841.3    0.00       1    999.0
 126    1:40   53.3    55    7.5   323     13.4   841.1    0.00       1    999.0
 126    1:50   53.5    55    7.4   318     13.2   841.1    0.00       1    999.0
 126    2:00   54.3    53   10.6   312     16.5   841.0    0.00       1    999.0
 126    2:10   54.2    53   10.3   310     16.2   840.9    0.00       1    999.0
 126    2:20   54.2    53    9.7   315     14.3   840.9    0.00       1    999.0
 126    2:30   54.0    54    7.7   326     12.7   840.9    0.00       1    999.0
 126    2:40   53.7    55    7.0   326     13.5   840.9    0.00       1    999.0
 126    2:50   53.5    55    6.6   329     12.7   841.0    0.00       1    999.0
 126    3:00   53.1    57    7.1   326     13.3   841.0    0.00       1    999.0
 126    3:10   52.8    58    7.0   324     13.3   841.1    0.00       1    999.0
 126    3:20   53.2    57    9.3   319     15.1   841.0    0.00       1    999.0
 126    3:30   53.2    57   11.5   309     17.0   841.0    0.00       1    999.0
 126    3:40   53.1    58   11.2   315     16.2   840.9    0.00       1    999.0
 126    3:50   53.2    57   10.0   318     20.2   840.8    0.00       1    999.0
 126    4:00   52.9    58    7.9   328     14.8   840.7    0.00       1    999.0
 126    4:10   52.4    59    7.7   326     14.6   840.7    0.00       1    999.0
 126    4:20   52.2    60    9.0   309     14.6   841.0    0.00       1    999.0
 126    4:30   52.5    59   12.2   312     17.8   840.8    0.00       1    999.0
 126    4:40   52.4    60    9.4   318     15.0   840.6    0.00       1    999.0
 126    4:50   51.8    56    7.6   322     15.7   840.5    0.00       1    999.0
 126    5:00   51.5    54    5.0   319     10.7   840.8    0.00       1    999.0
 126    5:10   51.6    54    3.1   328      8.7   841.1    0.00       1    999.0
 126    5:20   51.6    55    3.5   325      7.7   840.7    0.00       5    999.0
 126    5:30   51.6    58    7.9   307     15.6   841.0    0.00       3    999.0
 126    5:40   51.8    60    9.6   307     13.4   841.2    0.00       2    999.0

Return to Yerington, Nevada graphs page.


Western Regional Climate Center,wrcc@dri.edu